Airfield :
LOGIN :

Register | Disclaimer

   EN    FR    IT 

 










Legend :    VFR   Marginal VFR   IFR   Intensive IFR   Very Intensive IFR
Visi :
Ceiling :
>= 8 km
>= 3000ft
5 to 8 km
1000 to 3000 ft
1500m to 5 km
500 to 1000 ft
800 to 1500m
200 to 500 ft
< 800m
< 200 ft
Symbols :   Thunderstorms  Fog  Heavy snow  Heavy precipitations  Wind > 20 kt
SIGMETs :     Misc.  Thunderstorms  Icing  Turbulence  Mountain Waves  Volcanic Ashes






- Airport Elevation : 586 ft


LIMN - Cameri Air Force Base

CURRENT METAR :
  • 161755Z /////KT 9999 -TSRA SCT015 FEW017CB 18/18 Q1013 RMK BKN SCT200 VIS MIN 9999 BLU

EXPIRED METARs :
  • 161655Z /////KT 9999 4500N -TSRA SCT015 SCT017CB 19/14 Q1013 RMK OVC VIS MIN 4500N GRN
  • 161555Z /////KT 9999 4500N TS VCSH SCT020 FEW022CB 24/20 Q1013 RMK BKN SCT080 VIS MIN 4500N GRN

TAF TAF LIMN
Valid from the 16 at 18:00 until the 17 at 03:00 UTC


161700Z 1618/1703 13008KT 6000 BKN020
TEMPO 1618/1622 4000 TSRA SCT020CB BKN030



MET'MAP, your aeronautical weather chart ! - Copyright ORBIFLY December 2007 - Disclaimer

ORBIFLY MET'MAP TEAM :

Programming & Development : Alexandra Zaïnal
Concept & original design : Baudouin d'Aumeries
Assistance for programming : Marc-Olivier Méhu
Technical & hardware support : Manuel Goepfert

Contact : metmap@orbifly.com




SOURCES & CREDITS :

   NOAA